createdAt,value
2019-05-22T00:03:27.340Z,48.6
2019-05-22T00:08:27.660Z,48.6
2019-05-22T00:13:27.997Z,48.5
2019-05-22T00:18:28.352Z,48.4
2019-05-22T00:23:28.668Z,48.4
2019-05-22T00:28:28.984Z,48.4
2019-05-22T00:33:29.556Z,48.4
2019-05-22T00:38:29.884Z,48.3
2019-05-22T00:43:30.236Z,48.3
2019-05-22T00:48:30.548Z,48.3
2019-05-22T00:53:30.871Z,48.2
2019-05-22T00:58:31.208Z,48.1
2019-05-22T01:03:31.518Z,48.1
2019-05-22T01:08:31.803Z,48.1
2019-05-22T01:13:32.098Z,48
2019-05-22T01:18:32.412Z,48
2019-05-22T01:23:32.677Z,47.9
2019-05-22T01:28:32.960Z,47.9
2019-05-22T01:33:33.245Z,47.9
2019-05-22T01:38:33.771Z,47.8
2019-05-22T01:43:34.018Z,47.7
2019-05-22T01:48:34.294Z,47.7
2019-05-22T01:53:34.540Z,47.7
2019-05-22T01:58:34.783Z,47.6
2019-05-22T02:03:35.042Z,47.6
2019-05-22T02:08:35.295Z,47.6
2019-05-22T02:13:35.592Z,47.5
2019-05-22T02:18:35.842Z,47.5
2019-05-22T02:23:36.099Z,47.4
2019-05-22T02:28:36.339Z,47.4
2019-05-22T02:33:36.582Z,47.4
2019-05-22T02:38:36.820Z,47.3
2019-05-22T02:43:37.047Z,47.2
2019-05-22T02:48:37.328Z,47.2
2019-05-22T02:53:37.578Z,47.2
2019-05-22T02:58:37.829Z,47.1
2019-05-22T03:03:38.322Z,47.1
2019-05-22T03:08:38.560Z,47.1
2019-05-22T03:13:38.797Z,47
2019-05-22T03:18:39.040Z,47
2019-05-22T03:23:39.381Z,46.9
2019-05-22T03:28:39.687Z,46.9
2019-05-22T03:33:39.959Z,46.8
2019-05-22T03:38:40.252Z,46.8
2019-05-22T03:43:40.532Z,46.7
2019-05-22T03:48:40.818Z,46.7
2019-05-22T03:53:41.072Z,46.7
2019-05-22T03:58:41.360Z,46.6
2019-05-22T04:03:41.619Z,46.6
2019-05-22T04:08:41.877Z,46.6
2019-05-22T04:13:42.159Z,46.5
2019-05-22T04:18:42.404Z,46.4
2019-05-22T04:23:42.641Z,46.4
2019-05-22T04:28:43.602Z,46.4
2019-05-22T04:33:43.843Z,46.3
2019-05-22T04:38:44.101Z,46.2
2019-05-22T04:43:44.349Z,46.2
2019-05-22T04:48:45.956Z,46.2
2019-05-22T04:53:46.621Z,46.2
2019-05-22T04:58:46.838Z,46.1
2019-05-22T05:03:47.054Z,46.1
2019-05-22T05:08:47.302Z,46
2019-05-22T05:13:47.548Z,46
2019-05-22T05:18:47.803Z,45.9
2019-05-22T05:23:48.289Z,45.9
2019-05-22T05:28:48.550Z,45.9
2019-05-22T05:33:51.027Z,45.8
2019-05-22T05:38:51.285Z,45.8
2019-05-22T05:43:51.528Z,45.7
2019-05-22T05:48:51.739Z,45.7
2019-05-22T05:53:51.996Z,45.6
2019-05-22T05:58:52.246Z,45.6
2019-05-22T06:03:52.487Z,45.6
2019-05-22T06:08:52.708Z,45.5
2019-05-22T06:13:52.934Z,45.4
2019-05-22T06:18:56.487Z,45.4
2019-05-22T06:23:57.378Z,45.4
2019-05-22T06:28:57.593Z,45.3
2019-05-22T06:33:57.813Z,45.2
2019-05-22T06:38:58.035Z,45.2
2019-05-22T06:43:58.286Z,45.2
2019-05-22T06:48:58.511Z,45.2
2019-05-22T06:53:58.719Z,45.1
2019-05-22T06:58:59.157Z,45.1
2019-05-22T07:03:59.367Z,45.1
2019-05-22T07:08:59.592Z,45
2019-05-22T07:13:59.803Z,44.9
2019-05-22T07:18:59.994Z,44.9
2019-05-22T07:24:00.203Z,44.9
2019-05-22T07:29:04.389Z,44.8
2019-05-22T07:34:05.205Z,44.8
2019-05-22T07:39:05.396Z,44.7
2019-05-22T07:44:05.570Z,44.7
2019-05-22T07:49:05.742Z,44.7
2019-05-22T07:54:05.913Z,44.6
2019-05-22T07:59:06.812Z,44.6
2019-05-22T08:04:07.006Z,44.5
2019-05-22T08:09:07.206Z,44.5
2019-05-22T08:14:07.366Z,44.4
2019-05-22T08:19:07.522Z,44.4
2019-05-22T08:24:07.697Z,44.4
2019-05-22T08:29:07.857Z,44.3
2019-05-22T08:34:08.028Z,44.3
2019-05-22T08:39:08.227Z,44.2
2019-05-22T08:44:17.387Z,44.2
2019-05-22T08:49:19.217Z,44.2
2019-05-22T08:54:19.374Z,44.1
2019-05-22T08:59:20.279Z,44.1
2019-05-22T09:04:20.577Z,44.1
2019-05-22T09:14:26.558Z,44
2019-05-22T09:19:26.727Z,43.9
2019-05-22T09:24:27.013Z,43.9
2019-05-22T09:29:28.911Z,43.9
2019-05-22T09:34:29.082Z,43.8
2019-05-22T09:39:29.247Z,43.7
2019-05-22T09:44:29.422Z,43.7
2019-05-22T09:49:29.581Z,43.7
2019-05-22T09:54:29.741Z,43.7
2019-05-22T09:59:29.887Z,43.6
2019-05-22T10:04:30.047Z,43.6
2019-05-22T10:09:30.233Z,43.6
2019-05-22T10:14:33.145Z,43.5
2019-05-22T10:19:33.335Z,43.5
2019-05-22T10:24:35.153Z,43.4
2019-05-22T10:29:35.304Z,43.4
2019-05-22T10:34:35.447Z,43.4
2019-05-22T10:39:35.614Z,43.3
2019-05-22T10:44:37.430Z,43.3
2019-05-22T10:49:37.572Z,43.3
2019-05-22T10:54:37.985Z,43.2
2019-05-22T10:59:40.023Z,43.2
2019-05-22T11:04:41.831Z,43.1
2019-05-22T11:09:43.647Z,43.1
2019-05-22T11:14:45.462Z,43.1
2019-05-22T11:19:47.257Z,43
2019-05-22T11:24:47.397Z,43
2019-05-22T11:29:47.544Z,42.9
2019-05-22T11:34:47.693Z,42.9
2019-05-22T11:39:47.856Z,42.9
2019-05-22T11:44:49.681Z,42.8
2019-05-22T11:49:49.827Z,42.8
2019-05-22T11:54:51.661Z,42.7
2019-05-22T11:59:53.479Z,42.7
2019-05-22T12:04:55.296Z,42.7
2019-05-22T12:09:57.103Z,42.6
2019-05-22T12:14:58.958Z,42.6
2019-05-22T12:20:00.810Z,42.6
2019-05-22T12:25:00.952Z,42.6
2019-05-22T12:30:02.764Z,42.5
2019-05-22T12:35:04.584Z,42.5
2019-05-22T12:40:06.397Z,42.4
2019-05-22T12:45:08.210Z,42.4
2019-05-22T12:50:10.007Z,42.4
2019-05-22T12:55:11.834Z,42.3
2019-05-22T13:00:13.636Z,42.3
2019-05-22T13:05:15.481Z,42.2
2019-05-22T13:10:17.309Z,42.2
2019-05-22T13:15:19.237Z,42.2
2019-05-22T13:20:21.310Z,42.1
2019-05-22T13:25:23.360Z,42.1
2019-05-22T13:30:28.352Z,42.1
2019-05-22T13:35:30.586Z,42.1
2019-05-22T13:40:32.585Z,42
2019-05-22T13:45:34.392Z,42
2019-05-22T13:50:36.291Z,41.9
2019-05-22T13:55:38.053Z,41.9
2019-05-22T14:00:39.815Z,41.9
2019-05-22T14:05:41.558Z,41.9
2019-05-22T14:10:43.301Z,41.8
2019-05-22T14:15:50.327Z,41.8
2019-05-22T14:20:53.367Z,41.7
2019-05-22T14:25:55.121Z,41.7
2019-05-22T14:30:56.862Z,41.7
2019-05-22T14:35:58.593Z,41.7
2019-05-22T14:41:00.388Z,41.6
2019-05-22T14:46:02.186Z,41.6
2019-05-22T14:51:04.046Z,41.6
2019-05-22T14:56:05.002Z,41.5
2019-05-22T15:01:06.757Z,41.5
2019-05-22T15:06:08.526Z,41.4
2019-05-22T15:11:10.250Z,41.4
2019-05-22T15:16:12.026Z,41.4
2019-05-22T15:21:14.640Z,41.4
2019-05-22T15:26:16.361Z,41.3
2019-05-22T15:31:18.120Z,41.3
2019-05-22T15:36:19.842Z,41.2
2019-05-22T15:41:21.581Z,41.2
2019-05-22T15:46:23.320Z,41.2
2019-05-22T15:51:25.068Z,41.2
2019-05-22T15:56:26.806Z,41.1
2019-05-22T16:01:28.522Z,41.1
2019-05-22T16:06:30.253Z,41.1
2019-05-22T16:11:32.010Z,41.1
2019-05-22T16:16:33.741Z,41
2019-05-22T16:21:35.485Z,41
2019-05-22T16:26:37.238Z,40.9
2019-05-22T16:31:39.022Z,40.9
2019-05-22T16:36:40.796Z,40.9
2019-05-22T16:41:42.582Z,40.9
2019-05-22T16:46:44.375Z,40.8
2019-05-22T16:51:46.295Z,40.8
2019-05-22T16:56:48.092Z,40.8
2019-05-22T17:01:59.793Z,40.8
2019-05-22T17:07:01.094Z,40.7
2019-05-22T17:12:04.833Z,40.7
2019-05-22T17:17:06.817Z,40.6
2019-05-22T17:22:08.592Z,40.6
2019-05-22T17:27:10.388Z,40.6
2019-05-22T17:32:11.244Z,40.6
2019-05-22T17:37:13.042Z,40.5
2019-05-22T17:42:14.811Z,40.5
2019-05-22T17:47:16.576Z,40.5
2019-05-22T17:52:18.324Z,40.4
2019-05-22T17:57:20.090Z,40.4
2019-05-22T18:02:21.839Z,40.4
2019-05-22T18:07:23.617Z,40.4
2019-05-22T18:12:25.430Z,40.3
2019-05-22T18:17:27.182Z,40.2
2019-05-22T18:22:28.954Z,40.2
2019-05-22T18:27:30.735Z,40.2
2019-05-22T18:32:32.505Z,40.2
2019-05-22T18:37:34.266Z,40.2
2019-05-22T18:42:36.029Z,40.1
2019-05-22T18:47:37.775Z,40.1
2019-05-22T18:52:41.289Z,40.1
2019-05-22T18:57:43.436Z,40.1
2019-05-22T19:02:45.183Z,40.1
2019-05-22T19:07:47.202Z,40
2019-05-22T19:12:48.942Z,41.2
2019-05-22T19:17:50.721Z,41.9
2019-05-22T19:22:59.825Z,42.5
2019-05-22T19:28:00.900Z,42.9
2019-05-22T19:33:01.078Z,43.4
2019-05-22T19:38:01.310Z,43.8
2019-05-22T19:43:01.554Z,44.2
2019-05-22T19:48:01.763Z,44.6
2019-05-22T19:53:17.342Z,45
2019-05-22T19:58:21.760Z,45.4
2019-05-22T20:03:22.341Z,45.7
2019-05-22T20:08:22.644Z,46
2019-05-22T20:13:23.159Z,46.3
2019-05-22T20:18:23.431Z,46.4
2019-05-22T20:23:34.983Z,46.4
2019-05-22T20:28:36.164Z,46.3
2019-05-22T20:33:36.436Z,46.3
2019-05-22T20:38:36.707Z,46.2
2019-05-22T20:43:36.986Z,46.2
2019-05-22T20:48:37.330Z,46.2
2019-05-22T20:53:52.652Z,46.2
2019-05-22T20:58:53.985Z,46.1
2019-05-22T21:03:54.249Z,46.1
2019-05-22T21:08:54.473Z,46.1
2019-05-22T21:13:54.708Z,46.1
2019-05-22T21:18:54.985Z,46
2019-05-22T21:24:09.268Z,46
2019-05-22T21:29:10.138Z,45.9
2019-05-22T21:34:10.405Z,45.9
2019-05-22T21:39:10.654Z,45.9
2019-05-22T21:44:10.921Z,45.8
2019-05-22T21:49:11.215Z,45.8
2019-05-22T21:54:11.475Z,45.8
2019-05-22T21:59:11.714Z,45.7
2019-05-22T22:04:11.928Z,45.7
2019-05-22T22:09:12.213Z,45.6
2019-05-22T22:14:12.459Z,45.6
2019-05-22T22:19:12.696Z,45.5
2019-05-22T22:24:12.958Z,45.5
2019-05-22T22:29:13.245Z,45.4
2019-05-22T22:34:13.482Z,45.4
2019-05-22T22:39:13.701Z,45.4
2019-05-22T22:44:13.923Z,45.3
2019-05-22T22:49:14.171Z,45.3
2019-05-22T22:54:14.386Z,45.2
2019-05-22T22:59:14.608Z,45.2
2019-05-22T23:04:14.832Z,45.2
2019-05-22T23:09:15.041Z,45.1
2019-05-22T23:14:15.256Z,45.1
2019-05-22T23:19:15.480Z,45
2019-05-22T23:24:15.708Z,45
2019-05-22T23:29:15.905Z,44.9
2019-05-22T23:34:16.102Z,44.9
2019-05-22T23:39:16.290Z,44.8
2019-05-22T23:44:16.492Z,44.8
2019-05-22T23:49:16.673Z,44.7
2019-05-22T23:54:16.866Z,44.7
2019-05-22T23:59:17.055Z,44.6
